Time;durP1;ratioP1;P1;durP2;ratioP2;P2;SDS_P1;SDS_P2;PMS_P1;PMS_P2;Temp;Humidity;BMP_temperature;BMP_pressure;BME280_temperature;BME280_humidity;BME280_pressure;Samples;Min_cycle;Max_cycle;Signal;HPM_P1;HPM_P2
2023/06/11 00:01:24;;;;;;;4.30;3.88;;;22.40;70.80;;;;;;4999630;28;20041;-67
2023/06/11 00:03:53;;;;;;;6.20;4.13;;;22.40;71.00;;;;;;5012084;28;20556;-67
2023/06/11 00:06:22;;;;;;;4.35;3.90;;;22.40;71.20;;;;;;5012540;28;20048;-67
2023/06/11 00:08:54;;;;;;;4.72;3.88;;;22.40;71.30;;;;;;4996612;28;20399;-67
2023/06/11 00:11:22;;;;;;;7.43;3.85;;;22.30;71.50;;;;;;4998668;28;20036;-67
2023/06/11 00:13:49;;;;;;;5.53;4.68;;;22.30;71.70;;;;;;5004939;28;20674;-67
2023/06/11 00:16:16;;;;;;;8.23;4.57;;;22.30;72.40;;;;;;4988930;28;20048;-67
2023/06/11 00:18:43;;;;;;;4.88;4.38;;;22.30;72.30;;;;;;5007643;28;20400;-67
2023/06/11 00:21:10;;;;;;;5.05;3.67;;;22.30;72.40;;;;;;4996786;28;20033;-67
2023/06/11 00:23:37;;;;;;;6.85;4.60;;;22.20;72.50;;;;;;4991347;28;20038;-67
2023/06/11 00:26:05;;;;;;;5.93;5.15;;;22.30;72.80;;;;;;5012597;28;20739;-67
2023/06/11 00:28:32;;;;;;;5.47;4.85;;;22.20;73.20;;;;;;5011195;28;20157;-67
2023/06/11 00:31:00;;;;;;;8.02;4.65;;;22.20;73.10;;;;;;5004059;28;20036;-67
2023/06/11 00:33:27;;;;;;;6.53;4.70;;;22.20;73.50;;;;;;4995995;28;20420;-67
2023/06/11 00:35:53;;;;;;;7.80;4.90;;;22.20;73.50;;;;;;5010103;28;20041;-67
2023/06/11 00:38:22;;;;;;;7.70;4.75;;;22.10;73.60;;;;;;4992363;28;20964;-67
2023/06/11 00:40:48;;;;;;;8.20;4.68;;;22.10;74.00;;;;;;4984505;28;20048;-67
2023/06/11 00:43:21;;;;;;;8.68;5.20;;;22.00;74.10;;;;;;5011033;28;20489;-67
2023/06/11 00:45:50;;;;;;;5.05;4.47;;;22.00;74.50;;;;;;5010515;28;20037;-67
2023/06/11 00:48:20;;;;;;;4.63;3.72;;;21.90;74.50;;;;;;5010062;28;20042;-67
2023/06/11 00:50:48;;;;;;;4.55;4.15;;;21.90;74.40;;;;;;5007812;28;20037;-67
2023/06/11 00:53:17;;;;;;;4.72;3.85;;;21.90;74.70;;;;;;5016286;28;20025;-67
2023/06/11 00:55:45;;;;;;;8.30;4.35;;;21.80;75.50;;;;;;5026777;28;20470;-67
2023/06/11 00:58:17;;;;;;;6.40;4.53;;;21.80;75.10;;;;;;4992749;28;20490;-67
2023/06/11 01:00:47;;;;;;;6.07;5.00;;;21.70;75.40;;;;;;5001141;28;20037;-67
2023/06/11 01:03:18;;;;;;;5.60;4.40;;;21.70;75.80;;;;;;5013472;28;20033;-67
2023/06/11 01:05:53;;;;;;;5.70;4.90;;;21.70;75.70;;;;;;5012743;28;20044;-66
2023/06/11 01:08:19;;;;;;;4.65;3.45;;;21.70;75.80;;;;;;5012234;28;20037;-67
2023/06/11 01:10:50;;;;;;;7.43;5.07;;;21.60;75.80;;;;;;5005427;28;20400;-66
2023/06/11 01:13:17;;;;;;;4.25;3.85;;;21.60;76.10;;;;;;5016581;28;20040;-67
2023/06/11 01:15:44;;;;;;;5.65;4.40;;;21.60;76.00;;;;;;5000145;28;20041;-67
2023/06/11 01:18:19;;;;;;;4.55;3.67;;;21.50;76.30;;;;;;5016687;28;20036;-67
2023/06/11 01:20:58;;;;;;;5.65;4.93;;;21.50;76.40;;;;;;5014143;28;20045;-67
2023/06/11 01:23:46;;;;;;;5.28;4.65;;;21.40;76.50;;;;;;4993041;28;20080;-67
2023/06/11 01:26:27;;;;;;;5.57;4.40;;;21.40;76.70;;;;;;5013615;28;20021;-67
2023/06/11 01:28:56;;;;;;;6.13;4.43;;;21.30;76.70;;;;;;5011033;28;21029;-67
2023/06/11 01:31:25;;;;;;;5.15;4.00;;;21.30;77.00;;;;;;5002489;28;20057;-67
2023/06/11 01:33:53;;;;;;;4.47;3.70;;;21.30;77.20;;;;;;4998586;28;20045;-67
2023/06/11 01:36:24;;;;;;;4.50;3.97;;;21.20;77.20;;;;;;5018633;28;20036;-67
2023/06/11 01:38:51;;;;;;;6.05;4.00;;;21.20;77.40;;;;;;5022967;28;20029;-67
2023/06/11 01:41:38;;;;;;;6.70;4.50;;;21.20;77.30;;;;;;5006106;28;20060;-67
2023/06/11 01:44:04;;;;;;;4.50;4.10;;;21.10;77.70;;;;;;4979760;28;20040;-67
2023/06/11 01:46:32;;;;;;;3.33;3.03;;;21.00;77.60;;;;;;5018436;28;20455;-67
2023/06/11 01:48:58;;;;;;;3.80;3.10;;;21.00;77.70;;;;;;5011954;28;20059;-67
2023/06/11 01:51:25;;;;;;;5.10;4.60;;;21.00;77.80;;;;;;5003485;28;20044;-67
2023/06/11 01:53:51;;;;;;;4.13;3.72;;;20.90;78.00;;;;;;5010099;28;20033;-67
2023/06/11 01:56:17;;;;;;;5.55;4.50;;;20.90;78.20;;;;;;5013765;28;20044;-67
2023/06/11 01:58:47;;;;;;;5.10;3.55;;;20.90;78.40;;;;;;5000569;28;20512;-67
2023/06/11 02:01:14;;;;;;;5.30;4.78;;;20.80;78.30;;;;;;5006069;28;20494;-67
2023/06/11 02:03:41;;;;;;;4.25;3.85;;;20.80;78.80;;;;;;4992001;28;20041;-67
2023/06/11 02:06:08;;;;;;;4.05;3.65;;;20.80;78.80;;;;;;5008751;28;20041;-67
2023/06/11 02:08:35;;;;;;;5.35;4.65;;;20.70;78.90;;;;;;5007452;28;20044;-67
2023/06/11 02:11:03;;;;;;;4.25;3.85;;;20.70;79.10;;;;;;4999244;28;20037;-67
2023/06/11 02:13:30;;;;;;;4.03;3.35;;;20.70;79.30;;;;;;4993935;28;20416;-67
2023/06/11 02:15:58;;;;;;;5.15;3.95;;;20.60;79.40;;;;;;5007947;28;20041;-67
2023/06/11 02:18:25;;;;;;;5.68;4.97;;;20.60;79.60;;;;;;5016267;28;20032;-67
2023/06/11 02:20:51;;;;;;;5.68;4.15;;;20.50;79.90;;;;;;5011770;28;20036;-67
2023/06/11 02:23:19;;;;;;;4.93;4.43;;;20.50;80.10;;;;;;5003461;28;20041;-67
2023/06/11 02:25:45;;;;;;;4.53;4.13;;;20.50;80.20;;;;;;5013233;28;21461;-67
2023/06/11 02:28:13;;;;;;;6.10;5.20;;;20.50;80.40;;;;;;4996548;28;20033;-67
2023/06/11 02:30:40;;;;;;;6.38;4.80;;;20.40;80.80;;;;;;5003902;28;20033;-66
2023/06/11 02:33:07;;;;;;;4.85;4.10;;;20.50;80.80;;;;;;5011503;28;20029;-67
2023/06/11 02:35:35;;;;;;;4.50;4.10;;;20.40;80.70;;;;;;5010530;28;20044;-66
2023/06/11 02:38:01;;;;;;;5.90;5.38;;;20.40;80.70;;;;;;5010187;28;20519;-67
2023/06/11 02:40:28;;;;;;;4.95;4.55;;;20.40;81.10;;;;;;5007057;28;20037;-67
2023/06/11 02:42:55;;;;;;;6.15;5.53;;;20.40;81.20;;;;;;5002059;28;20033;-67
2023/06/11 02:45:21;;;;;;;5.78;5.18;;;20.30;81.10;;;;;;5021645;28;20021;-67
2023/06/11 02:47:47;;;;;;;4.15;3.85;;;20.30;81.30;;;;;;5032935;28;20021;-66
2023/06/11 02:50:14;;;;;;;4.35;4.00;;;20.30;81.30;;;;;;5007930;28;20033;-67
2023/06/11 02:52:40;;;;;;;5.85;4.85;;;20.30;82.00;;;;;;5011818;28;20029;-67
2023/06/11 02:55:07;;;;;;;8.00;4.88;;;20.20;81.60;;;;;;5011216;28;22305;-67
2023/06/11 02:57:33;;;;;;;4.32;3.85;;;20.20;81.60;;;;;;4998276;28;20037;-66
2023/06/11 02:59:59;;;;;;;4.90;4.03;;;20.20;81.70;;;;;;5003586;28;20032;-66
2023/06/11 03:02:26;;;;;;;5.82;3.90;;;20.20;81.80;;;;;;5012297;28;20041;-66
2023/06/11 03:04:52;;;;;;;5.88;3.45;;;20.10;81.60;;;;;;5018429;28;20380;-66
2023/06/11 03:07:19;;;;;;;4.95;4.15;;;20.10;81.70;;;;;;5005364;28;20044;-67
2023/06/11 03:09:46;;;;;;;4.15;3.75;;;20.10;81.70;;;;;;5009440;28;20260;-66
2023/06/11 03:12:12;;;;;;;4.00;3.70;;;20.10;81.70;;;;;;5009772;28;20511;-66
2023/06/11 03:14:40;;;;;;;8.27;4.38;;;20.00;81.70;;;;;;5011072;28;20037;-67
2023/06/11 03:17:06;;;;;;;3.78;3.38;;;20.00;82.10;;;;;;5011232;28;20025;-67
2023/06/11 03:19:32;;;;;;;4.97;3.97;;;20.00;82.10;;;;;;5007519;28;20056;-67
2023/06/11 03:22:00;;;;;;;5.38;4.38;;;19.90;82.20;;;;;;4990189;28;20037;-66
2023/06/11 03:24:26;;;;;;;5.72;3.67;;;19.90;82.30;;;;;;4997721;28;20060;-66
2023/06/11 03:27:01;;;;;;;5.32;3.35;;;19.90;82.30;;;;;;5042847;28;20036;-66
2023/06/11 03:29:27;;;;;;;2.85;2.65;;;19.80;82.20;;;;;;4980133;28;20049;-66
2023/06/11 03:31:56;;;;;;;3.67;3.15;;;19.80;82.20;;;;;;4993012;28;20025;-67
2023/06/11 03:34:23;;;;;;;3.95;3.20;;;19.90;82.30;;;;;;4992202;28;20029;-67
2023/06/11 03:36:51;;;;;;;4.95;3.90;;;19.80;82.40;;;;;;4976472;28;20041;-67
2023/06/11 03:39:18;;;;;;;5.13;4.47;;;19.80;82.40;;;;;;4989286;28;20043;-67
2023/06/11 03:41:46;;;;;;;6.90;4.82;;;19.80;82.70;;;;;;4984966;28;20048;-67
2023/06/11 03:44:14;;;;;;;3.80;3.40;;;19.80;82.80;;;;;;5007997;28;20040;-67
2023/06/11 03:46:40;;;;;;;4.68;3.47;;;19.70;82.70;;;;;;4989606;28;20491;-67
2023/06/11 03:49:06;;;;;;;3.35;2.90;;;19.70;82.70;;;;;;5010609;28;20040;-67
2023/06/11 03:51:33;;;;;;;4.10;3.70;;;19.70;82.70;;;;;;5007028;28;20552;-67
2023/06/11 03:53:59;;;;;;;4.60;3.90;;;19.70;82.90;;;;;;5013736;28;20032;-67
2023/06/11 03:56:26;;;;;;;6.00;4.10;;;19.70;83.10;;;;;;4992589;28;20385;-67
2023/06/11 03:58:52;;;;;;;3.90;3.50;;;19.70;83.20;;;;;;5005749;28;20029;-67
2023/06/11 04:01:19;;;;;;;6.30;4.30;;;19.70;83.30;;;;;;4998265;28;20037;-67
2023/06/11 04:03:45;;;;;;;5.75;3.58;;;19.70;83.40;;;;;;4989369;28;20048;-67
2023/06/11 04:06:11;;;;;;;4.07;3.70;;;19.80;83.50;;;;;;4990474;28;20037;-67
2023/06/11 04:08:38;;;;;;;3.25;2.95;;;19.80;83.40;;;;;;5009545;28;20870;-67
2023/06/11 04:11:05;;;;;;;5.72;3.83;;;19.80;83.40;;;;;;5004269;28;20029;-67
2023/06/11 04:13:31;;;;;;;4.65;3.58;;;19.80;83.50;;;;;;5014130;28;20040;-68
2023/06/11 04:15:57;;;;;;;4.20;3.80;;;19.80;83.30;;;;;;5016280;28;20033;-66
2023/06/11 04:18:24;;;;;;;5.32;3.90;;;19.90;83.30;;;;;;5010421;28;20033;-67
2023/06/11 04:20:53;;;;;;;4.18;3.78;;;19.90;83.30;;;;;;4997683;28;20036;-66
2023/06/11 04:23:20;;;;;;;4.28;3.88;;;19.90;83.10;;;;;;5005666;28;20029;-67
2023/06/11 04:25:50;;;;;;;4.00;3.65;;;20.00;83.20;;;;;;4991668;28;20048;-67
2023/06/11 04:28:19;;;;;;;3.42;3.13;;;20.10;83.40;;;;;;5024104;28;20036;-67
2023/06/11 04:30:46;;;;;;;4.57;3.58;;;20.10;83.20;;;;;;4996671;28;20017;-67
2023/06/11 04:33:15;;;;;;;5.30;3.45;;;20.20;83.30;;;;;;4995036;28;22631;-67
2023/06/11 04:35:43;;;;;;;4.80;3.40;;;20.20;83.10;;;;;;4999909;28;20033;-67
2023/06/11 04:38:10;;;;;;;3.72;3.33;;;20.30;83.10;;;;;;4999240;28;20036;-67
2023/06/11 04:40:38;;;;;;;5.38;4.13;;;20.40;83.00;;;;;;5000775;28;20041;-67
2023/06/11 04:43:06;;;;;;;6.53;4.00;;;20.50;83.00;;;;;;5008229;28;20037;-67
2023/06/11 04:45:34;;;;;;;3.53;3.10;;;20.50;82.90;;;;;;5005801;28;20048;-67
2023/06/11 04:48:03;;;;;;;3.75;3.45;;;20.60;82.70;;;;;;5005042;28;20029;-67
2023/06/11 04:50:31;;;;;;;4.45;3.70;;;20.70;82.60;;;;;;4982803;28;20033;-67
2023/06/11 04:53:01;;;;;;;4.15;3.08;;;20.80;82.50;;;;;;5039896;28;20036;-67
2023/06/11 04:55:32;;;;;;;3.95;3.58;;;20.90;82.30;;;;;;5015927;28;20510;-67
2023/06/11 04:58:00;;;;;;;4.13;3.47;;;21.00;82.20;;;;;;4993204;28;20049;-67
2023/06/11 05:00:29;;;;;;;4.32;3.78;;;21.10;82.10;;;;;;5017205;28;20605;-67
2023/06/11 05:02:58;;;;;;;4.78;4.35;;;21.10;81.90;;;;;;5014946;28;20048;-67
2023/06/11 05:05:27;;;;;;;4.75;4.25;;;21.20;81.80;;;;;;5012818;28;20041;-67
2023/06/11 05:07:53;;;;;;;3.90;3.47;;;21.30;81.70;;;;;;5008482;28;20036;-67
2023/06/11 05:10:20;;;;;;;3.75;3.45;;;21.40;81.50;;;;;;4987819;28;20052;-67
2023/06/11 05:12:46;;;;;;;4.97;4.30;;;21.50;81.40;;;;;;5007900;28;20033;-67
2023/06/11 05:15:13;;;;;;;4.57;4.18;;;21.60;81.40;;;;;;5011129;28;20025;-67
2023/06/11 05:17:39;;;;;;;5.35;4.63;;;21.70;81.20;;;;;;5014697;28;20052;-67
2023/06/11 05:20:07;;;;;;;4.85;4.45;;;21.80;81.10;;;;;;4991024;28;20044;-67
2023/06/11 05:22:34;;;;;;;5.20;4.10;;;21.90;80.70;;;;;;5013367;28;20040;-67
2023/06/11 05:25:01;;;;;;;5.47;4.93;;;21.90;80.70;;;;;;4997272;28;20041;-67
2023/06/11 05:27:29;;;;;;;5.00;4.50;;;22.00;80.50;;;;;;5008753;28;20037;-67
2023/06/11 05:29:57;;;;;;;5.20;4.45;;;22.20;80.20;;;;;;4989935;28;20498;-67
2023/06/11 05:32:23;;;;;;;5.28;4.22;;;22.30;80.20;;;;;;4994861;28;21538;-67
2023/06/11 05:34:49;;;;;;;6.25;3.92;;;22.40;80.00;;;;;;4994174;28;20504;-67
2023/06/11 05:37:16;;;;;;;5.93;4.28;;;22.50;79.90;;;;;;5012221;28;20021;-67
2023/06/11 05:39:43;;;;;;;4.85;4.15;;;22.60;79.60;;;;;;5010819;28;20060;-67
2023/06/11 05:42:10;;;;;;;4.38;4.00;;;22.70;79.50;;;;;;5017182;28;20511;-67
2023/06/11 05:44:38;;;;;;;4.50;4.07;;;22.80;79.30;;;;;;5015797;28;20048;-67
2023/06/11 05:47:05;;;;;;;5.57;4.88;;;23.00;79.10;;;;;;5013216;28;20024;-67
2023/06/11 05:49:31;;;;;;;4.20;3.63;;;23.10;78.70;;;;;;5005257;28;20041;-67
2023/06/11 05:51:57;;;;;;;5.55;4.82;;;23.10;79.00;;;;;;5007173;28;20048;-67
2023/06/11 05:54:24;;;;;;;5.72;4.13;;;23.20;78.30;;;;;;5009230;28;20036;-67
2023/06/11 05:56:51;;;;;;;6.20;4.30;;;23.20;78.20;;;;;;5011174;28;20037;-67
2023/06/11 05:59:18;;;;;;;5.30;3.95;;;23.30;78.10;;;;;;4993022;28;20044;-67
2023/06/11 06:01:45;;;;;;;4.85;4.30;;;23.50;77.90;;;;;;5009695;28;20040;-67
2023/06/11 06:04:14;;;;;;;4.93;4.45;;;23.80;77.50;;;;;;5002984;28;20048;-67
2023/06/11 06:06:42;;;;;;;4.68;4.15;;;24.00;77.00;;;;;;5027559;28;20040;-67
2023/06/11 06:09:09;;;;;;;6.22;3.65;;;24.10;76.60;;;;;;4991115;28;20033;-66
2023/06/11 06:11:36;;;;;;;4.63;4.20;;;24.30;76.40;;;;;;5003663;28;20048;-67
2023/06/11 06:14:03;;;;;;;4.40;4.00;;;24.40;76.30;;;;;;5009701;28;20873;-67
2023/06/11 06:16:31;;;;;;;5.32;4.38;;;24.60;76.10;;;;;;4992197;28;20498;-67
2023/06/11 06:19:00;;;;;;;5.28;4.78;;;24.60;75.40;;;;;;5007974;28;20033;-67
2023/06/11 06:21:26;;;;;;;4.85;4.30;;;24.80;75.30;;;;;;4984869;28;20041;-67
2023/06/11 06:23:52;;;;;;;4.55;4.15;;;25.00;75.00;;;;;;5014951;28;20406;-67
2023/06/11 06:26:20;;;;;;;5.78;4.60;;;25.20;74.50;;;;;;5016853;28;20052;-67
2023/06/11 06:28:46;;;;;;;6.55;4.60;;;25.40;74.10;;;;;;4999623;28;20037;-67
2023/06/11 06:31:14;;;;;;;6.13;4.97;;;25.40;74.00;;;;;;5002755;28;20037;-68
2023/06/11 06:33:43;;;;;;;4.75;4.15;;;25.40;74.00;;;;;;5009504;28;20390;-68
2023/06/11 06:36:09;;;;;;;4.65;4.13;;;25.40;74.10;;;;;;4993729;28;20032;-68
2023/06/11 06:38:36;;;;;;;6.05;4.60;;;25.40;74.00;;;;;;5009015;28;20024;-68
2023/06/11 06:41:04;;;;;;;5.85;4.38;;;25.40;74.00;;;;;;4985802;28;20219;-68
2023/06/11 06:43:30;;;;;;;4.72;3.70;;;25.50;73.90;;;;;;5012542;28;20033;-68
2023/06/11 06:45:56;;;;;;;5.82;4.70;;;25.50;74.00;;;;;;4998420;28;20060;-68
2023/06/11 06:48:26;;;;;;;5.90;4.13;;;25.50;74.10;;;;;;5002640;28;20025;-68
2023/06/11 06:50:55;;;;;;;6.50;5.40;;;25.60;74.20;;;;;;5010627;28;21002;-68
2023/06/11 06:53:23;;;;;;;5.00;4.55;;;25.60;73.90;;;;;;5011498;28;20013;-68
2023/06/11 06:55:50;;;;;;;5.65;5.15;;;25.70;74.00;;;;;;5011560;28;20037;-68
2023/06/11 06:58:16;;;;;;;5.60;5.10;;;25.70;74.00;;;;;;5011339;28;21074;-68
2023/06/11 07:00:45;;;;;;;5.40;4.20;;;25.80;74.20;;;;;;5004815;28;20025;-67
2023/06/11 07:03:15;;;;;;;5.95;5.45;;;25.90;74.00;;;;;;5012218;28;20040;-68
2023/06/11 07:05:43;;;;;;;4.05;3.75;;;26.00;73.90;;;;;;5011532;28;20049;-67
2023/06/11 07:08:12;;;;;;;4.38;3.97;;;26.00;73.90;;;;;;5018012;28;20032;-68
2023/06/11 07:10:47;;;;;;;5.65;4.18;;;26.20;73.90;;;;;;5011713;28;20037;-68
2023/06/11 07:13:15;;;;;;;4.55;3.65;;;26.30;73.90;;;;;;5016663;28;20048;-68
2023/06/11 07:15:43;;;;;;;4.35;3.72;;;26.50;73.70;;;;;;5012890;28;20042;-68
2023/06/11 07:18:10;;;;;;;4.10;3.75;;;26.60;73.50;;;;;;4994705;28;20039;-72
2023/06/11 07:20:37;;;;;;;4.97;3.70;;;26.70;73.30;;;;;;4987052;28;20072;-68
2023/06/11 07:23:03;;;;;;;6.15;3.97;;;26.80;73.00;;;;;;5011667;28;20037;-68
2023/06/11 07:25:30;;;;;;;4.72;3.58;;;26.90;72.70;;;;;;5011740;28;20034;-68
2023/06/11 07:28:01;;;;;;;8.02;4.28;;;27.00;72.70;;;;;;5009649;28;20041;-68
2023/06/11 07:30:29;;;;;;;5.55;4.65;;;27.20;72.40;;;;;;5011219;28;20419;-68
2023/06/11 07:32:56;;;;;;;4.25;3.92;;;27.30;72.10;;;;;;5019752;28;20032;-68
2023/06/11 07:35:24;;;;;;;4.10;3.75;;;27.50;72.00;;;;;;4999354;28;20649;-68
2023/06/11 07:37:52;;;;;;;5.68;4.18;;;27.70;71.90;;;;;;5009132;28;20034;-67
2023/06/11 07:40:19;;;;;;;5.53;4.97;;;27.90;71.20;;;;;;5003148;28;20056;-68
2023/06/11 07:42:47;;;;;;;4.55;4.15;;;28.00;71.10;;;;;;4995543;28;20029;-67
2023/06/11 07:45:14;;;;;;;5.40;4.53;;;28.20;70.60;;;;;;5008654;28;20590;-68
2023/06/11 07:47:41;;;;;;;4.88;3.47;;;28.30;70.40;;;;;;5009486;28;20083;-68
2023/06/11 07:50:09;;;;;;;4.72;3.38;;;28.40;70.10;;;;;;5006501;28;21003;-68
2023/06/11 07:52:36;;;;;;;3.83;3.20;;;28.50;69.70;;;;;;5012049;28;20045;-68
2023/06/11 07:55:12;;;;;;;4.43;3.20;;;28.60;69.00;;;;;;5015660;28;20111;-68
2023/06/11 07:57:38;;;;;;;8.98;3.67;;;28.70;68.80;;;;;;5015845;28;20503;-68
2023/06/11 08:00:12;;;;;;;4.50;4.05;;;28.80;68.30;;;;;;5004058;28;20480;-67
2023/06/11 08:02:40;;;;;;;3.80;3.42;;;28.80;68.20;;;;;;5009463;28;20033;-67
2023/06/11 08:05:07;;;;;;;3.75;3.25;;;28.90;68.10;;;;;;5011068;28;20029;-68
2023/06/11 08:07:33;;;;;;;3.25;2.95;;;29.00;68.00;;;;;;5010074;28;20033;-68
2023/06/11 08:09:59;;;;;;;3.17;2.88;;;29.10;67.90;;;;;;5004869;28;20048;-68
2023/06/11 08:12:25;;;;;;;4.05;3.65;;;29.30;67.80;;;;;;5010652;28;20029;-68
2023/06/11 08:14:52;;;;;;;4.15;3.47;;;29.40;67.20;;;;;;4998257;28;20674;-68
2023/06/11 08:17:18;;;;;;;3.13;2.83;;;29.40;66.90;;;;;;5016254;28;20017;-68
2023/06/11 08:19:44;;;;;;;3.10;2.80;;;29.40;67.10;;;;;;5005449;28;20692;-68
2023/06/11 08:22:11;;;;;;;4.40;3.25;;;29.50;67.10;;;;;;5009123;28;20029;-68
2023/06/11 08:24:37;;;;;;;5.78;4.03;;;29.70;66.80;;;;;;4977439;28;20033;-68
2023/06/11 08:27:04;;;;;;;4.45;3.40;;;29.70;66.40;;;;;;5008557;28;20028;-68
2023/06/11 08:29:30;;;;;;;3.10;2.88;;;29.70;66.60;;;;;;5002404;28;20504;-68
2023/06/11 08:31:57;;;;;;;4.95;2.72;;;29.80;66.50;;;;;;5007468;28;20471;-65
2023/06/11 08:34:23;;;;;;;3.80;3.50;;;29.90;66.60;;;;;;5011788;28;20052;-66
2023/06/11 08:36:50;;;;;;;5.32;3.50;;;30.00;66.30;;;;;;5013981;28;20045;-65
2023/06/11 08:39:16;;;;;;;3.47;3.17;;;30.10;66.20;;;;;;5017218;28;20072;-65
2023/06/11 08:41:43;;;;;;;2.63;2.40;;;30.20;66.10;;;;;;5011520;28;20416;-65
2023/06/11 08:44:10;;;;;;;3.72;3.30;;;30.20;66.00;;;;;;5013722;28;20491;-65
2023/06/11 08:46:38;;;;;;;4.47;4.07;;;30.40;65.80;;;;;;5008158;28;20029;-67
2023/06/11 08:49:06;;;;;;;3.50;3.15;;;30.40;65.10;;;;;;5003998;28;20044;-68
2023/06/11 08:51:37;;;;;;;4.28;3.90;;;30.40;64.70;;;;;;5004331;28;20037;-68
2023/06/11 08:54:08;;;;;;;5.03;4.28;;;30.40;64.70;;;;;;5010042;28;20037;-68
2023/06/11 08:56:34;;;;;;;4.03;3.63;;;30.40;64.50;;;;;;5009682;28;20527;-67
2023/06/11 08:59:01;;;;;;;4.30;3.22;;;30.50;64.80;;;;;;5007762;28;20044;-68
2023/06/11 09:01:29;;;;;;;3.75;3.13;;;30.70;64.70;;;;;;5008768;28;20044;-65
2023/06/11 09:03:55;;;;;;;4.05;3.65;;;30.80;64.40;;;;;;5013339;28;20044;-67
2023/06/11 09:06:21;;;;;;;4.40;3.88;;;30.90;64.10;;;;;;5016144;28;20369;-67
2023/06/11 09:09:14;;;;;;;6.32;3.45;;;31.00;63.70;;;;;;5005353;28;20037;-67
2023/06/11 09:11:41;;;;;;;4.57;3.35;;;31.10;63.20;;;;;;5002141;28;20342;-67
2023/06/11 09:14:07;;;;;;;3.53;2.78;;;31.10;63.30;;;;;;5008852;28;20380;-68
2023/06/11 09:16:45;;;;;;;3.75;3.40;;;31.20;63.10;;;;;;5009218;28;20403;-67
2023/06/11 09:19:16;;;;;;;3.63;3.33;;;31.40;62.70;;;;;;5008578;28;20037;-67
2023/06/11 09:21:54;;;;;;;3.47;3.17;;;31.40;62.80;;;;;;5012161;28;20381;-67
2023/06/11 09:24:21;;;;;;;4.82;3.13;;;31.40;62.40;;;;;;5001618;28;20040;-68
2023/06/11 09:26:50;;;;;;;5.15;2.92;;;31.50;62.60;;;;;;5016627;28;20601;-67
2023/06/11 09:29:16;;;;;;;4.47;3.25;;;31.50;62.30;;;;;;5009691;28;20045;-67
2023/06/11 09:31:43;;;;;;;5.55;3.13;;;31.60;62.60;;;;;;5004443;28;20044;-67
2023/06/11 09:34:12;;;;;;;3.75;2.90;;;31.60;62.30;;;;;;4993326;28;20530;-68
2023/06/11 09:36:39;;;;;;;5.65;4.75;;;31.80;62.60;;;;;;5006897;28;20042;-67
2023/06/11 09:39:06;;;;;;;4.15;3.85;;;31.90;61.90;;;;;;5010710;28;20037;-67
2023/06/11 09:41:33;;;;;;;3.17;2.88;;;31.90;61.30;;;;;;5005206;28;20445;-67
2023/06/11 09:44:00;;;;;;;4.93;3.00;;;32.00;61.30;;;;;;5001489;28;20028;-68
2023/06/11 09:46:26;;;;;;;3.38;3.08;;;32.00;61.00;;;;;;5022034;28;20029;-65
2023/06/11 09:48:53;;;;;;;4.88;3.10;;;32.10;60.50;;;;;;5020726;28;20389;-67
2023/06/11 09:51:23;;;;;;;4.60;3.40;;;32.20;60.70;;;;;;5007712;28;20033;-67
2023/06/11 09:53:51;;;;;;;3.53;2.95;;;32.30;60.10;;;;;;5013455;28;20398;-67
2023/06/11 09:56:19;;;;;;;3.85;3.45;;;32.40;60.00;;;;;;5014042;28;20522;-68
2023/06/11 09:58:48;;;;;;;3.92;3.08;;;32.50;60.00;;;;;;5012484;28;23159;-68
2023/06/11 10:01:15;;;;;;;3.17;2.88;;;32.60;59.80;;;;;;5007987;28;20578;-67
2023/06/11 10:03:42;;;;;;;4.60;3.40;;;32.60;60.00;;;;;;5014138;28;20033;-67
2023/06/11 10:06:15;;;;;;;3.80;3.20;;;32.70;59.40;;;;;;5021791;28;20088;-67
2023/06/11 10:08:48;;;;;;;3.50;2.53;;;32.80;59.30;;;;;;5021490;28;20053;-66
2023/06/11 10:11:16;;;;;;;4.20;2.75;;;32.80;59.30;;;;;;5012467;28;20492;-67
2023/06/11 10:13:56;;;;;;;3.67;2.85;;;32.80;58.40;;;;;;5014390;28;20028;-67
2023/06/11 10:16:22;;;;;;;2.88;2.38;;;32.70;57.40;;;;;;5014109;28;20029;-67
2023/06/11 10:18:51;;;;;;;3.25;2.05;;;32.70;57.50;;;;;;5015215;28;20040;-67
2023/06/11 10:21:18;;;;;;;3.05;2.38;;;32.80;57.10;;;;;;5005108;28;21158;-67
2023/06/11 10:23:51;;;;;;;2.90;2.42;;;32.90;56.50;;;;;;5011979;28;20037;-67
2023/06/11 10:26:17;;;;;;;4.28;2.53;;;33.00;56.30;;;;;;4995314;28;20499;-67
2023/06/11 10:28:44;;;;;;;3.38;2.35;;;33.00;55.60;;;;;;4999292;28;20488;-67
2023/06/11 10:31:11;;;;;;;3.42;2.00;;;33.00;54.60;;;;;;5011290;28;20045;-67
2023/06/11 10:33:45;;;;;;;3.28;2.35;;;33.10;54.90;;;;;;5018633;28;20025;-67
2023/06/11 10:36:33;;;;;;;2.67;2.25;;;33.20;54.20;;;;;;5009810;28;20040;-67
2023/06/11 10:39:12;;;;;;;2.97;2.47;;;33.40;54.60;;;;;;5012328;28;20415;-67
2023/06/11 10:41:39;;;;;;;4.75;2.10;;;33.60;54.30;;;;;;4990829;28;20252;-67
2023/06/11 10:44:10;;;;;;;2.90;2.10;;;33.80;54.50;;;;;;5013287;28;20033;-67
2023/06/11 10:46:49;;;;;;;2.85;2.00;;;34.10;54.10;;;;;;5013666;28;20044;-67
2023/06/11 10:49:15;;;;;;;3.45;2.20;;;34.40;53.10;;;;;;5011525;28;20044;-67
2023/06/11 10:51:41;;;;;;;3.65;2.47;;;34.80;53.20;;;;;;5011829;28;20402;-67
2023/06/11 10:54:08;;;;;;;3.80;2.42;;;35.10;52.70;;;;;;5019173;28;20041;-67
2023/06/11 10:56:38;;;;;;;4.15;2.60;;;35.40;53.20;;;;;;5019833;28;20036;-67
2023/06/11 10:59:10;;;;;;;3.40;2.10;;;35.80;53.40;;;;;;5011264;28;20472;-67
2023/06/11 11:01:37;;;;;;;3.28;1.80;;;36.20;52.00;;;;;;5008591;28;20329;-68
2023/06/11 11:04:03;;;;;;;2.55;1.80;;;36.30;50.80;;;;;;5024974;28;20413;-67
2023/06/11 11:06:31;;;;;;;3.30;1.90;;;36.40;50.10;;;;;;5014612;28;20559;-67
2023/06/11 11:08:59;;;;;;;3.47;2.15;;;36.60;49.90;;;;;;5009982;28;20044;-67
2023/06/11 11:11:26;;;;;;;2.13;1.75;;;36.70;49.50;;;;;;5006441;28;20029;-67
2023/06/11 11:13:53;;;;;;;2.83;2.17;;;37.00;49.30;;;;;;5017440;28;20384;-67
2023/06/11 11:16:20;;;;;;;4.78;2.28;;;37.20;49.10;;;;;;5018565;28;20036;-67
2023/06/11 11:18:50;;;;;;;2.85;1.85;;;37.40;49.10;;;;;;5028945;28;20520;-67
2023/06/11 11:21:17;;;;;;;3.40;2.08;;;37.70;48.70;;;;;;5008154;28;20028;-67
2023/06/11 11:23:48;;;;;;;4.30;2.50;;;37.90;47.70;;;;;;5012642;28;20044;-67
2023/06/11 11:26:17;;;;;;;4.07;2.10;;;37.90;47.50;;;;;;5045320;28;20033;-67
2023/06/11 11:28:44;;;;;;;2.85;1.98;;;38.10;47.30;;;;;;5013020;28;20065;-67
2023/06/11 11:31:13;;;;;;;2.58;1.73;;;38.30;46.60;;;;;;5006311;28;20041;-67
2023/06/11 11:33:40;;;;;;;2.20;1.85;;;38.50;46.40;;;;;;5013750;28;20033;-67
2023/06/11 11:36:06;;;;;;;2.38;1.85;;;38.80;46.30;;;;;;5014631;28;20479;-67
2023/06/11 11:38:36;;;;;;;5.93;2.78;;;39.00;46.50;;;;;;5015280;28;20059;-67
2023/06/11 11:41:06;;;;;;;3.55;1.88;;;39.10;45.10;;;;;;5011844;28;20040;-67
2023/06/11 11:43:43;;;;;;;3.17;2.00;;;39.20;44.80;;;;;;5017237;28;20029;-68
2023/06/11 11:46:20;;;;;;;3.53;1.67;;;39.40;44.70;;;;;;4993479;28;20492;-67
2023/06/11 11:48:47;;;;;;;3.15;1.60;;;39.80;44.00;;;;;;5014888;28;20051;-67
2023/06/11 11:51:15;;;;;;;2.35;1.90;;;39.80;43.30;;;;;;5005168;28;20252;-67
2023/06/11 11:53:41;;;;;;;3.03;1.88;;;39.80;43.00;;;;;;5011651;28;20029;-71
2023/06/11 11:56:08;;;;;;;2.15;1.52;;;39.80;42.60;;;;;;5011082;28;20566;-67
2023/06/11 11:58:36;;;;;;;3.13;1.90;;;39.80;42.70;;;;;;5012929;28;20347;-67
2023/06/11 12:01:03;;;;;;;2.35;1.55;;;39.80;42.30;;;;;;5011133;28;20041;-67
2023/06/11 12:03:29;;;;;;;2.17;1.77;;;39.90;42.50;;;;;;5018311;28;20036;-68
2023/06/11 12:06:00;;;;;;;3.20;1.88;;;40.10;42.10;;;;;;5014694;28;20040;-69
2023/06/11 12:08:27;;;;;;;2.95;1.60;;;40.40;42.00;;;;;;5015188;28;20055;-69
2023/06/11 12:10:54;;;;;;;3.85;1.83;;;40.70;41.20;;;;;;4987849;28;20340;-68
2023/06/11 12:13:21;;;;;;;5.72;1.75;;;41.00;40.60;;;;;;5011302;28;20617;-68
2023/06/11 12:15:47;;;;;;;3.13;1.58;;;41.10;40.50;;;;;;5013805;28;20435;-71
2023/06/11 12:18:14;;;;;;;5.00;2.53;;;41.40;40.40;;;;;;5024664;28;20048;-71
2023/06/11 12:20:41;;;;;;;3.20;2.90;;;41.80;40.00;;;;;;4989259;28;20381;-70
2023/06/11 12:23:07;;;;;;;3.88;2.42;;;42.00;39.90;;;;;;5014444;28;20411;-71
2023/06/11 12:25:34;;;;;;;5.00;2.78;;;42.30;39.60;;;;;;5016914;28;20048;-71
2023/06/11 12:28:00;;;;;;;2.30;2.10;;;42.30;39.20;;;;;;5018515;28;20423;-71
2023/06/11 12:30:30;;;;;;;2.90;2.70;;;42.20;39.10;;;;;;5007487;28;20037;-71
2023/06/11 12:33:00;;;;;;;3.72;2.53;;;42.30;39.60;;;;;;5012701;28;20477;-69
2023/06/11 12:35:29;;;;;;;2.30;2.00;;;42.40;39.50;;;;;;5009993;28;20034;-70
2023/06/11 12:37:56;;;;;;;2.33;1.90;;;42.40;39.40;;;;;;5009203;28;20028;-70
2023/06/11 12:40:23;;;;;;;2.50;2.00;;;42.50;39.60;;;;;;5002790;28;20055;-69
2023/06/11 12:42:56;;;;;;;2.67;1.70;;;42.80;39.50;;;;;;5008274;28;20052;-69
2023/06/11 12:45:30;;;;;;;5.57;2.38;;;42.90;38.70;;;;;;4994543;28;20032;-70
2023/06/11 12:47:57;;;;;;;2.55;1.60;;;42.90;38.40;;;;;;5018314;28;20047;-69
2023/06/11 12:50:27;;;;;;;2.20;1.60;;;42.90;38.60;;;;;;5010965;28;20037;-69
2023/06/11 12:52:53;;;;;;;2.65;1.70;;;43.30;38.70;;;;;;5030986;28;20068;-70